Dakota S — WDC7687 — position and weather

sailwx.info

Track history (hours):
 
Tides and Currents Weather Stations Pressure Air Temp Water Temp Dewpoint Dewpoint Depression Visibility Wind Speed Wind Dir Waves Ship Positions

Dakota S

Owner: D&S Marine Service,LLC. Dakota S., Gray, LA. More information available from US FCC via Universal Licensing System and Coast Guard Vessel Documentation Center.

Last reported at 2018-May-18 09:13 UTC. Time now 2018-May-24 14:01 UTC.
Position N 28°54' W 095°24'.

Length 93 m; draft 1.8 m.

Type: . MMSI: 367075190.

Date/timePositionNaut miles runAvg speedWind from/ knotsBaromVisibWave heightAir tempDewpointWater temp
2018-May-18 09:13N 28°54' W 095°24'1 4.1
2018-May-18 09:00N 28°54' W 095°23'1 2.8
2018-May-18 08:29N 28°55' W 095°21'4 5.9
2018-May-18 07:50N 28°57' W 095°18'3 6.0
2018-May-18 07:18N 28°60' W 095°15'2 6.4
2018-May-18 07:00N 29°01' W 095°14'3 6.1
2018-May-18 06:30N 29°04' W 095°13'3 6.2
2018-May-18 06:00N 29°07' W 095°12'3 5.8
2018-May-18 05:30N 29°09' W 095°09'3 5.9
2018-May-18 05:00N 29°10' W 095°06'3 5.9
2018-May-18 04:30N 29°12' W 095°04'3 5.6
2018-May-18 04:00N 29°14' W 095°01'3 5.6
2018-May-18 03:30N 29°16' W 094°59'2 4.7
2018-May-18 03:00N 29°17' W 094°57'2 4.2
2018-May-18 02:30N 29°17' W 094°54'2 4.5
2018-May-18 02:00N 29°19' W 094°52'3 5.2
2018-May-18 01:28N 29°20' W 094°50'2 4.9
2018-May-18 01:00N 29°22' W 094°48'3 6.2
2018-May-18 00:30N 29°25' W 094°50'3 6.1
2018-May-18 00:00N 29°28' W 094°51'3 6.2
2018-May-17 23:30N 29°31' W 094°53'3 6.3
2018-May-17 23:00N 29°33' W 094°55'3 6.2
2018-May-17 22:30N 29°36' W 094°57'3 6.2
2018-May-17 22:00N 29°39' W 094°58'3 6.6
2018-May-17 21:30N 29°42' W 094°60'3 5.7
2018-May-17 20:54N 29°44' W 095°03'3 0.6
2018-May-17 15:36N 29°45' W 095°06'0 0.0
2018-May-17 15:19N 29°45' W 095°06'0 0.0
2018-May-17 13:42N 29°45' W 095°06'0 0.0
2018-May-17 13:30N 29°45' W 095°06'0 0.0
2018-May-17 13:00N 29°45' W 095°06'0 0.0
2018-May-17 12:30N 29°45' W 095°06'0 0.0
2018-May-17 12:00N 29°45' W 095°06'0 0.0
2018-May-17 11:25N 29°45' W 095°06'0 0.0
2018-May-17 11:00N 29°45' W 095°06'0 0.0
2018-May-17 10:21N 29°45' W 095°06'0 0.0
2018-May-17 09:53N 29°45' W 095°06'0 0.0
2018-May-17 09:29N 29°45' W 095°06'0 0.0
2018-May-17 08:58N 29°45' W 095°06'0 0.0
2018-May-17 08:30N 29°45' W 095°06'0 0.0
2018-May-17 08:00N 29°45' W 095°06'0 0.0
2018-May-17 07:27N 29°45' W 095°06'0 0.0
2018-May-17 06:53N 29°45' W 095°06'0 0.0
2018-May-17 06:01N 29°45' W 095°06'0 0.0
2018-May-17 06:00N 29°45' W 095°06'0 0.0
2018-May-17 05:30N 29°45' W 095°06'0 0.0
2018-May-17 05:00N 29°45' W 095°06'0 0.0
2018-May-17 04:29N 29°45' W 095°06'0 0.0
2018-May-17 04:00N 29°45' W 095°06'0 0.0
2018-May-17 03:30N 29°45' W 095°06'1 1.0
2018-May-17 03:00N 29°46' W 095°06'0 0.8
2018-May-17 02:30N 29°46' W 095°06'0 0.0
2018-May-17 01:57N 29°46' W 095°06'0 0.0
2018-May-17 01:27N 29°46' W 095°06'0 0.0
2018-May-16 15:00N 29°46' W 095°06'0 0.0
2018-May-16 14:29N 29°46' W 095°06'0 0.0
2018-May-16 14:00N 29°46' W 095°06'0 0.0
2018-May-16 13:29N 29°46' W 095°06'0 0.0
2018-May-16 13:00N 29°46' W 095°06'0 0.0
2018-May-16 12:30N 29°46' W 095°06'0 0.0
2018-May-16 12:00N 29°46' W 095°06'0 0.0
2018-May-16 11:30N 29°46' W 095°06'0 0.0
2018-May-16 11:00N 29°46' W 095°06'0 0.0
2018-May-16 10:28N 29°46' W 095°06'0 0.0
2018-May-16 09:58N 29°46' W 095°06'0 0.0
2018-May-16 09:30N 29°46' W 095°06'0 0.0
2018-May-16 09:00N 29°46' W 095°06'0 0.0
2018-May-16 08:30N 29°46' W 095°06'0 0.0
2018-May-16 08:00N 29°46' W 095°06'0 0.0
2018-May-16 07:30N 29°46' W 095°06'0 0.0
2018-May-16 07:00N 29°46' W 095°06'0 0.0
2018-May-16 06:30N 29°46' W 095°06'0 0.0
2018-May-16 06:00N 29°46' W 095°06'0 0.0
2018-May-16 05:30N 29°46' W 095°06'0 0.0
2018-May-16 05:00N 29°46' W 095°06'0 0.2
2018-May-16 04:30N 29°46' W 095°06'0 0.4
2018-May-16 04:00N 29°46' W 095°06'0 0.0
2018-May-16 03:30N 29°46' W 095°06'0 0.0
2018-May-16 03:00N 29°46' W 095°06'0 0.0
2018-May-16 02:30N 29°46' W 095°06'0 0.0
2018-May-16 02:00N 29°46' W 095°06'0 0.0
2018-May-16 01:30N 29°46' W 095°06'0 0.0
2018-May-16 01:00N 29°46' W 095°06'0 0.0
2018-May-15 15:07N 29°46' W 095°05'1 4.3
2018-May-15 14:52N 29°46' W 095°04'2 5.4
2018-May-15 14:30N 29°44' W 095°03'2 4.6
2018-May-15 14:00N 29°42' W 095°01'2 3.5
2018-May-15 13:30N 29°43' W 095°03'0 0.1
2018-May-15 13:00N 29°43' W 095°03'0 0.0
2018-May-15 12:30N 29°43' W 095°03'0 0.0
2018-May-15 12:00N 29°43' W 095°03'0 0.0
2018-May-15 11:30N 29°43' W 095°03'0 0.0
2018-May-15 11:01N 29°43' W 095°03'0 0.0
2018-May-15 10:31N 29°43' W 095°03'0 0.0
2018-May-15 10:00N 29°43' W 095°03'0 0.0
2018-May-15 09:30N 29°43' W 095°03'0 0.0
2018-May-15 09:00N 29°43' W 095°03'0 0.0
2018-May-15 08:30N 29°43' W 095°03'0 0.0
2018-May-15 08:00N 29°43' W 095°03'0 0.0
2018-May-15 07:23N 29°43' W 095°03'0 0.0
2018-May-15 07:00N 29°43' W 095°03'0 0.0
2018-May-15 06:30N 29°43' W 095°03'0 0.0
2018-May-15 06:00N 29°43' W 095°03'0 0.0
2018-May-15 05:31N 29°43' W 095°03'0 0.0
2018-May-15 05:00N 29°43' W 095°03'0 0.0
2018-May-15 04:30N 29°43' W 095°03'0 0.0
2018-May-15 03:58N 29°43' W 095°03'0 0.0
2018-May-15 03:31N 29°43' W 095°03'0 0.0
2018-May-15 03:00N 29°43' W 095°03'0 0.0
2018-May-15 02:30N 29°43' W 095°03'0 0.0
2018-May-15 02:00N 29°43' W 095°03'0 0.0
2018-May-15 01:30N 29°43' W 095°03'0 0.0
2018-May-15 01:00N 29°43' W 095°03'0 0.0
2018-May-15 00:25N 29°43' W 095°03'0 0.0
2018-May-15 00:00N 29°43' W 095°03'0 0.0
2018-May-14 23:21N 29°43' W 095°03'0 0.0
2018-May-14 15:51N 29°43' W 095°03'0 0.3
2018-May-14 15:30N 29°43' W 095°03'2 3.5
2018-May-14 15:00N 29°42' W 095°01'2 3.4
2018-May-14 14:27N 29°44' W 095°02'2 4.0
2018-May-14 14:00N 29°45' W 095°04'2 3.3
2018-May-14 13:30N 29°46' W 095°06'0 0.5
2018-May-14 12:58N 29°46' W 095°06'1 0.0
2018-May-13 01:51N 29°46' W 095°05'0 0.0
2018-May-13 01:24N 29°46' W 095°05'0 0.1
2018-May-13 00:56N 29°46' W 095°05'0 0.1
2018-May-13 00:30N 29°46' W 095°05'1 0.2
2018-May-12 22:04N 29°46' W 095°05'0 5.6
2018-May-12 22:00N 29°46' W 095°05'1 0.1
2018-May-12 13:25N 29°46' W 095°06'0 0.0
2018-May-12 13:01N 29°46' W 095°06'0 0.0
2018-May-12 12:28N 29°46' W 095°06'0 0.0
2018-May-11 18:12N 29°46' W 095°05'1 6.7
2018-May-11 18:00N 29°45' W 095°04'3 6.4
2018-May-11 17:30N 29°43' W 095°01'1 2.9
2018-May-11 17:00N 29°42' W 095°02'1 2.9
2018-May-11 16:30N 29°43' W 095°01'3 5.4
2018-May-11 16:00N 29°45' W 095°04'2 0.1
2018-May-11 02:58N 29°46' W 095°06'0 0.0
2018-May-10 19:47N 29°46' W 095°05'0 0.6
2018-May-10 19:27N 29°46' W 095°06'0 0.0
2018-May-10 13:33N 29°46' W 095°06'0 0.0
2018-May-10 13:30N 29°46' W 095°06'0 0.0
2018-May-10 12:58N 29°46' W 095°06'0 0.2
2018-May-10 12:30N 29°46' W 095°06'0 0.3
2018-May-10 12:00N 29°46' W 095°06'0 0.0
2018-May-10 11:30N 29°46' W 095°06'0 0.0
2018-May-10 10:53N 29°46' W 095°06'0 0.0
2018-May-10 10:30N 29°46' W 095°06'0 0.0
2018-May-10 10:00N 29°46' W 095°06'0 0.3
2018-May-10 09:24N 29°46' W 095°06'0 0.4
2018-May-10 09:00N 29°46' W 095°06'0 0.0
2018-May-10 08:29N 29°46' W 095°06'0 0.0
2018-May-10 07:57N 29°46' W 095°06'0 0.0
2018-May-10 07:30N 29°46' W 095°06'0 0.0
2018-May-10 07:00N 29°46' W 095°06'0 0.0
2018-May-10 06:30N 29°46' W 095°06'0 0.0
2018-May-10 06:00N 29°46' W 095°06'0 0.0
2018-May-10 05:30N 29°46' W 095°06'0 0.0
2018-May-10 05:01N 29°46' W 095°06'0 0.0
2018-May-10 04:30N 29°46' W 095°06'0 0.0
2018-May-10 04:00N 29°46' W 095°06'0 0.7
2018-May-10 03:31N 29°46' W 095°05'0 0.3
2018-May-10 03:00N 29°46' W 095°06'0 0.0
2018-May-10 02:27N 29°46' W 095°06'0 0.0
2018-May-10 02:00N 29°46' W 095°06'0 0.0
2018-May-10 01:29N 29°46' W 095°06'0 0.0
2018-May-10 01:00N 29°46' W 095°06'0 0.0
2018-May-10 00:24N 29°46' W 095°06'0 0.0
2018-May-09 14:22N 29°46' W 095°06'0 0.0
2018-May-09 13:56N 29°46' W 095°06'0 1.0
2018-May-09 13:30N 29°45' W 095°06'0 0.3
2018-May-09 12:59N 29°45' W 095°06'0 0.0
2018-May-09 12:29N 29°45' W 095°06'0 0.3
2018-May-09 11:07N 29°46' W 095°06'0 0.5
2018-May-09 10:40N 29°46' W 095°06'0 0.0
2018-May-09 10:21N 29°46' W 095°06'0 0.6
2018-May-09 09:56N 29°46' W 095°06'0 0.0
2018-May-09 09:30N 29°46' W 095°06'0 0.0
2018-May-09 08:59N 29°46' W 095°06'0 0.0
2018-May-09 08:30N 29°46' W 095°06'0 0.0
2018-May-09 08:00N 29°46' W 095°06'0 0.0
2018-May-09 07:31N 29°46' W 095°06'0 0.0
2018-May-09 06:58N 29°46' W 095°06'0 0.0
2018-May-09 06:27N 29°46' W 095°06'0 0.0
2018-May-09 06:00N 29°46' W 095°06'0 0.0
2018-May-09 05:30N 29°46' W 095°06'0 0.0
2018-May-09 05:00N 29°46' W 095°06'0 0.0
2018-May-09 04:31N 29°46' W 095°06'0 0.0
2018-May-09 04:01N 29°46' W 095°06'0 0.0
2018-May-09 03:30N 29°46' W 095°06'0 0.0
2018-May-09 03:00N 29°46' W 095°06'0 0.0
2018-May-09 02:31N 29°46' W 095°06'0 0.0
2018-May-09 01:59N 29°46' W 095°06'0 0.0
2018-May-09 01:31N 29°46' W 095°06'0 0.0
2018-May-09 01:01N 29°46' W 095°06'0 0.0
2018-May-09 00:29N 29°46' W 095°06'0 0.0
2018-May-08 14:26N 29°46' W 095°06'0 0.0
2018-May-08 13:58N 29°46' W 095°06'0 0.0
2018-May-08 13:30N 29°46' W 095°06'0 0.0
2018-May-08 13:00N 29°46' W 095°06'0 0.0
2018-May-08 12:30N 29°46' W 095°06'0 0.0
2018-May-08 12:00N 29°46' W 095°06'0 0.0
2018-May-08 11:31N 29°46' W 095°06'0 0.0
2018-May-08 11:00N 29°46' W 095°06'0 0.0
2018-May-08 10:30N 29°46' W 095°06'0 0.0
2018-May-08 10:01N 29°46' W 095°06'0 0.0
2018-May-08 09:30N 29°46' W 095°06'  
Track history (hours):
 
Tides and Currents Weather Stations Pressure Air Temp Water Temp Dewpoint Dewpoint Depression Visibility Wind Speed Wind Dir Waves Ship Positions

Dakota S

Owner: D&S Marine Service,LLC. Dakota S., Gray, LA. More information available from US FCC via Universal Licensing System and Coast Guard Vessel Documentation Center.

Last reported at 2018-May-18 09:13 UTC. Time now 2018-May-24 14:01 UTC.
Position N 28°54' W 095°24'.

Length 93 m; draft 1.8 m.

Type: . MMSI: 367075190.

Date/timePositionNaut miles runAvg speedWind from/ knotsBaromVisibWave heightAir tempDewpointWater temp
2018-May-18 09:13N 28°54' W 095°24'1 4.1
2018-May-18 09:00N 28°54' W 095°23'1 2.8
2018-May-18 08:29N 28°55' W 095°21'4 5.9
2018-May-18 07:50N 28°57' W 095°18'3 6.0
2018-May-18 07:18N 28°60' W 095°15'2 6.4
2018-May-18 07:00N 29°01' W 095°14'3 6.1
2018-May-18 06:30N 29°04' W 095°13'3 6.2
2018-May-18 06:00N 29°07' W 095°12'3 5.8
2018-May-18 05:30N 29°09' W 095°09'3 5.9
2018-May-18 05:00N 29°10' W 095°06'3 5.9
2018-May-18 04:30N 29°12' W 095°04'3 5.6
2018-May-18 04:00N 29°14' W 095°01'3 5.6
2018-May-18 03:30N 29°16' W 094°59'2 4.7
2018-May-18 03:00N 29°17' W 094°57'2 4.2
2018-May-18 02:30N 29°17' W 094°54'2 4.5
2018-May-18 02:00N 29°19' W 094°52'3 5.2
2018-May-18 01:28N 29°20' W 094°50'2 4.9
2018-May-18 01:00N 29°22' W 094°48'3 6.2
2018-May-18 00:30N 29°25' W 094°50'3 6.1
2018-May-18 00:00N 29°28' W 094°51'3 6.2
2018-May-17 23:30N 29°31' W 094°53'3 6.3
2018-May-17 23:00N 29°33' W 094°55'3 6.2
2018-May-17 22:30N 29°36' W 094°57'3 6.2
2018-May-17 22:00N 29°39' W 094°58'3 6.6
2018-May-17 21:30N 29°42' W 094°60'3 5.7
2018-May-17 20:54N 29°44' W 095°03'3 0.6
2018-May-17 15:36N 29°45' W 095°06'0 0.0
2018-May-17 15:19N 29°45' W 095°06'0 0.0
2018-May-17 13:42N 29°45' W 095°06'0 0.0
2018-May-17 13:30N 29°45' W 095°06'0 0.0
2018-May-17 13:00N 29°45' W 095°06'0 0.0
2018-May-17 12:30N 29°45' W 095°06'0 0.0
2018-May-17 12:00N 29°45' W 095°06'0 0.0
2018-May-17 11:25N 29°45' W 095°06'0 0.0
2018-May-17 11:00N 29°45' W 095°06'0 0.0
2018-May-17 10:21N 29°45' W 095°06'0 0.0
2018-May-17 09:53N 29°45' W 095°06'0 0.0
2018-May-17 09:29N 29°45' W 095°06'0 0.0
2018-May-17 08:58N 29°45' W 095°06'0 0.0
2018-May-17 08:30N 29°45' W 095°06'0 0.0
2018-May-17 08:00N 29°45' W 095°06'0 0.0
2018-May-17 07:27N 29°45' W 095°06'0 0.0
2018-May-17 06:53N 29°45' W 095°06'0 0.0
2018-May-17 06:01N 29°45' W 095°06'0 0.0
2018-May-17 06:00N 29°45' W 095°06'0 0.0
2018-May-17 05:30N 29°45' W 095°06'0 0.0
2018-May-17 05:00N 29°45' W 095°06'0 0.0
2018-May-17 04:29N 29°45' W 095°06'0 0.0
2018-May-17 04:00N 29°45' W 095°06'0 0.0
2018-May-17 03:30N 29°45' W 095°06'1 1.0
2018-May-17 03:00N 29°46' W 095°06'0 0.8
2018-May-17 02:30N 29°46' W 095°06'0 0.0
2018-May-17 01:57N 29°46' W 095°06'0 0.0
2018-May-17 01:27N 29°46' W 095°06'0 0.0
2018-May-16 15:00N 29°46' W 095°06'0 0.0
2018-May-16 14:29N 29°46' W 095°06'0 0.0
2018-May-16 14:00N 29°46' W 095°06'0 0.0
2018-May-16 13:29N 29°46' W 095°06'0 0.0
2018-May-16 13:00N 29°46' W 095°06'0 0.0
2018-May-16 12:30N 29°46' W 095°06'0 0.0
2018-May-16 12:00N 29°46' W 095°06'0 0.0
2018-May-16 11:30N 29°46' W 095°06'0 0.0
2018-May-16 11:00N 29°46' W 095°06'0 0.0
2018-May-16 10:28N 29°46' W 095°06'0 0.0
2018-May-16 09:58N 29°46' W 095°06'0 0.0
2018-May-16 09:30N 29°46' W 095°06'0 0.0
2018-May-16 09:00N 29°46' W 095°06'0 0.0
2018-May-16 08:30N 29°46' W 095°06'0 0.0
2018-May-16 08:00N 29°46' W 095°06'0 0.0
2018-May-16 07:30N 29°46' W 095°06'0 0.0
2018-May-16 07:00N 29°46' W 095°06'0 0.0
2018-May-16 06:30N 29°46' W 095°06'0 0.0
2018-May-16 06:00N 29°46' W 095°06'0 0.0
2018-May-16 05:30N 29°46' W 095°06'0 0.0
2018-May-16 05:00N 29°46' W 095°06'0 0.2
2018-May-16 04:30N 29°46' W 095°06'0 0.4
2018-May-16 04:00N 29°46' W 095°06'0 0.0
2018-May-16 03:30N 29°46' W 095°06'0 0.0
2018-May-16 03:00N 29°46' W 095°06'0 0.0
2018-May-16 02:30N 29°46' W 095°06'0 0.0
2018-May-16 02:00N 29°46' W 095°06'0 0.0
2018-May-16 01:30N 29°46' W 095°06'0 0.0
2018-May-16 01:00N 29°46' W 095°06'0 0.0
2018-May-15 15:07N 29°46' W 095°05'1 4.3
2018-May-15 14:52N 29°46' W 095°04'2 5.4
2018-May-15 14:30N 29°44' W 095°03'2 4.6
2018-May-15 14:00N 29°42' W 095°01'2 3.5
2018-May-15 13:30N 29°43' W 095°03'0 0.1
2018-May-15 13:00N 29°43' W 095°03'0 0.0
2018-May-15 12:30N 29°43' W 095°03'0 0.0
2018-May-15 12:00N 29°43' W 095°03'0 0.0
2018-May-15 11:30N 29°43' W 095°03'0 0.0
2018-May-15 11:01N 29°43' W 095°03'0 0.0
2018-May-15 10:31N 29°43' W 095°03'0 0.0
2018-May-15 10:00N 29°43' W 095°03'0 0.0
2018-May-15 09:30N 29°43' W 095°03'0 0.0
2018-May-15 09:00N 29°43' W 095°03'0 0.0
2018-May-15 08:30N 29°43' W 095°03'0 0.0
2018-May-15 08:00N 29°43' W 095°03'0 0.0
2018-May-15 07:23N 29°43' W 095°03'0 0.0
2018-May-15 07:00N 29°43' W 095°03'0 0.0
2018-May-15 06:30N 29°43' W 095°03'0 0.0
2018-May-15 06:00N 29°43' W 095°03'0 0.0
2018-May-15 05:31N 29°43' W 095°03'0 0.0
2018-May-15 05:00N 29°43' W 095°03'0 0.0
2018-May-15 04:30N 29°43' W 095°03'0 0.0
2018-May-15 03:58N 29°43' W 095°03'0 0.0
2018-May-15 03:31N 29°43' W 095°03'0 0.0
2018-May-15 03:00N 29°43' W 095°03'0 0.0
2018-May-15 02:30N 29°43' W 095°03'0 0.0
2018-May-15 02:00N 29°43' W 095°03'0 0.0
2018-May-15 01:30N 29°43' W 095°03'0 0.0
2018-May-15 01:00N 29°43' W 095°03'0 0.0
2018-May-15 00:25N 29°43' W 095°03'0 0.0
2018-May-15 00:00N 29°43' W 095°03'0 0.0
2018-May-14 23:21N 29°43' W 095°03'0 0.0
2018-May-14 15:51N 29°43' W 095°03'0 0.3
2018-May-14 15:30N 29°43' W 095°03'2 3.5
2018-May-14 15:00N 29°42' W 095°01'2 3.4
2018-May-14 14:27N 29°44' W 095°02'2 4.0
2018-May-14 14:00N 29°45' W 095°04'2 3.3
2018-May-14 13:30N 29°46' W 095°06'0 0.5
2018-May-14 12:58N 29°46' W 095°06'1 0.0
2018-May-13 01:51N 29°46' W 095°05'0 0.0
2018-May-13 01:24N 29°46' W 095°05'0 0.1
2018-May-13 00:56N 29°46' W 095°05'0 0.1
2018-May-13 00:30N 29°46' W 095°05'1 0.2
2018-May-12 22:04N 29°46' W 095°05'0 5.6
2018-May-12 22:00N 29°46' W 095°05'1 0.1
2018-May-12 13:25N 29°46' W 095°06'0 0.0
2018-May-12 13:01N 29°46' W 095°06'0 0.0
2018-May-12 12:28N 29°46' W 095°06'0 0.0
2018-May-11 18:12N 29°46' W 095°05'1 6.7
2018-May-11 18:00N 29°45' W 095°04'3 6.4
2018-May-11 17:30N 29°43' W 095°01'1 2.9
2018-May-11 17:00N 29°42' W 095°02'1 2.9
2018-May-11 16:30N 29°43' W 095°01'3 5.4
2018-May-11 16:00N 29°45' W 095°04'2 0.1
2018-May-11 02:58N 29°46' W 095°06'0 0.0
2018-May-10 19:47N 29°46' W 095°05'0 0.6
2018-May-10 19:27N 29°46' W 095°06'0 0.0
2018-May-10 13:33N 29°46' W 095°06'0 0.0
2018-May-10 13:30N 29°46' W 095°06'0 0.0
2018-May-10 12:58N 29°46' W 095°06'0 0.2
2018-May-10 12:30N 29°46' W 095°06'0 0.3
2018-May-10 12:00N 29°46' W 095°06'0 0.0
2018-May-10 11:30N 29°46' W 095°06'0 0.0
2018-May-10 10:53N 29°46' W 095°06'0 0.0
2018-May-10 10:30N 29°46' W 095°06'0 0.0
2018-May-10 10:00N 29°46' W 095°06'0 0.3
2018-May-10 09:24N 29°46' W 095°06'0 0.4
2018-May-10 09:00N 29°46' W 095°06'0 0.0
2018-May-10 08:29N 29°46' W 095°06'0 0.0
2018-May-10 07:57N 29°46' W 095°06'0 0.0
2018-May-10 07:30N 29°46' W 095°06'0 0.0
2018-May-10 07:00N 29°46' W 095°06'0 0.0
2018-May-10 06:30N 29°46' W 095°06'0 0.0
2018-May-10 06:00N 29°46' W 095°06'0 0.0
2018-May-10 05:30N 29°46' W 095°06'0 0.0
2018-May-10 05:01N 29°46' W 095°06'0 0.0
2018-May-10 04:30N 29°46' W 095°06'0 0.0
2018-May-10 04:00N 29°46' W 095°06'0 0.7
2018-May-10 03:31N 29°46' W 095°05'0 0.3
2018-May-10 03:00N 29°46' W 095°06'0 0.0
2018-May-10 02:27N 29°46' W 095°06'0 0.0
2018-May-10 02:00N 29°46' W 095°06'0 0.0
2018-May-10 01:29N 29°46' W 095°06'0 0.0
2018-May-10 01:00N 29°46' W 095°06'0 0.0
2018-May-10 00:24N 29°46' W 095°06'0 0.0
2018-May-09 14:22N 29°46' W 095°06'0 0.0
2018-May-09 13:56N 29°46' W 095°06'0 1.0
2018-May-09 13:30N 29°45' W 095°06'0 0.3
2018-May-09 12:59N 29°45' W 095°06'0 0.0
2018-May-09 12:29N 29°45' W 095°06'0 0.3
2018-May-09 11:07N 29°46' W 095°06'0 0.5
2018-May-09 10:40N 29°46' W 095°06'0 0.0
2018-May-09 10:21N 29°46' W 095°06'0 0.6
2018-May-09 09:56N 29°46' W 095°06'0 0.0
2018-May-09 09:30N 29°46' W 095°06'0 0.0
2018-May-09 08:59N 29°46' W 095°06'0 0.0
2018-May-09 08:30N 29°46' W 095°06'0 0.0
2018-May-09 08:00N 29°46' W 095°06'0 0.0
2018-May-09 07:31N 29°46' W 095°06'0 0.0
2018-May-09 06:58N 29°46' W 095°06'0 0.0
2018-May-09 06:27N 29°46' W 095°06'0 0.0
2018-May-09 06:00N 29°46' W 095°06'0 0.0
2018-May-09 05:30N 29°46' W 095°06'0 0.0
2018-May-09 05:00N 29°46' W 095°06'0 0.0
2018-May-09 04:31N 29°46' W 095°06'0 0.0
2018-May-09 04:01N 29°46' W 095°06'0 0.0
2018-May-09 03:30N 29°46' W 095°06'0 0.0
2018-May-09 03:00N 29°46' W 095°06'0 0.0
2018-May-09 02:31N 29°46' W 095°06'0 0.0
2018-May-09 01:59N 29°46' W 095°06'0 0.0
2018-May-09 01:31N 29°46' W 095°06'0 0.0
2018-May-09 01:01N 29°46' W 095°06'0 0.0
2018-May-09 00:29N 29°46' W 095°06'0 0.0
2018-May-08 14:26N 29°46' W 095°06'0 0.0
2018-May-08 13:58N 29°46' W 095°06'0 0.0
2018-May-08 13:30N 29°46' W 095°06'0 0.0
2018-May-08 13:00N 29°46' W 095°06'0 0.0
2018-May-08 12:30N 29°46' W 095°06'0 0.0
2018-May-08 12:00N 29°46' W 095°06'0 0.0
2018-May-08 11:31N 29°46' W 095°06'0 0.0
2018-May-08 11:00N 29°46' W 095°06'0 0.0
2018-May-08 10:30N 29°46' W 095°06'0 0.0
2018-May-08 10:01N 29°46' W 095°06'0 0.0
2018-May-08 09:30N 29°46' W 095°06'  

Dump ship's entire track history